YNTM weather

Northam Airport
Western Australia, Australia

Public forecast

Using degrees Celsius for public forecast. Weather courtesy of forecast.io.

Closest aviation weather report (METAR) to Northam Airport

Closest report is RAAF Base Pearce, 34.2 nm (63.4 km) W. Retrieved 2019/12/10 04:30 UTC (25 minutes ago):

YPEA 100430Z 13009KT 090V160 CAVOK 35/03 Q1016 NOSIG

Closest aviation forecast (TAF) to Northam Airport

Closest forecast is RAAF Base Pearce, 34.2 nm (63.4 km) W. Retrieved 2019-12-10 00:33 UTC (4 hours ago):

TAF TAF YPEA 092211Z 1000/1018 12010KT CAVOK FM100900 19014KT CAVOK FM101600 10016KT CAVOK